map of TTN home
TTN - Airport
Location
City:  Trenton, New Jersey, United States
Name:Trenton Mercer Airport
ICAO:KTTN
IATA:TTN
FAA LID:TTN

Details
Type:Airport (Part 139 Class I)
Use:Public/Civil
Latitude:4016'36"N (40.276694)
Longitude:7448'48"W (-74.813471)
Datum:WGS 1984
Elevation:212 ft (65 m)
Variation:12.38W (WMM2015 magnetic declination)
0.02 annual change
Runways:2
Longest:6006 × 150 ft (1831 × 45.5 m), paved

Time
Time Zone:UTC-5 (DST-4)
Local Time:

Weather
METAR:KTTN 131053Z 26011G22KT 10SM CLR M07/M16 A2959 RMK AO2 SLP014 T10671156
TAF:KTTN 130705Z 1307/1406 28012G21KT P6SM SKC
FM131100 28016G29KT P6SM SKC
FM132200 26011KT P6SM SCT100
FM140500 VRB03KT P6SM OVC050

Related Locations
Nearby:
Farthest:MQZ: 11738 mi / 18890 km
Margaret River [Margaret River Airport], WA, AU

Find:

   beyond  
but within

Other Information
Maps:
NOTAMs:
Links:
Sources:

  
flag of United States
flag of New Jersey
  

Airport Diagram

Airport diagram for TTN

Airport diagram PDF

Sectional Chart

Flight Planning
at skyvector.com

Satellite Image

Google Maps Satellite view

 

Copyright © 2004-2017 Karl L. Swartz. All rights reserved.
The Great Circle Mapper name and logo are trademarks of the Great Circle Mapper.
All other trademarks mentioned herein belong to their respective owners.
Please see credits for attibutions and further copyright information.

  Follow gcmap on Facebook Follow gcmap on Twitter Follow gcmap on Google+ GCmap on LinkedIn

hCard Microformat

Geo Microformat